PWSweather.com
Personal Weather Stations
Station Observations
BANARIES
Huesca, HuescaES 22194

HuescaHuescaES 22194

Lat: 42.1313, Lon: -0.4666

Elevation: 1560

Station Type: Davis Vantage Vue

Latest ConditionsUpdated 6:14:05 AM GMT+01:01 Friday, Jun 23, 2017
Currently Today's Max Today's Min Today's Average
Temperature 71.1°F21.7°C 80.2°F26.8°C 69.5°F20.8°C 73.9°F23.3°C
Dew Point 60.8°F16.0°C 61.0°F16.1°C 59.3°F15.2°C 60.4°F15.8°C
Winds 0.1 mph E0.2 kmh E 9.2 mph SE14.8 kmh SE - 4.0 mph 6.4 kmh
Wind Gusts 1.0 mph1.6 kmh 13.0 mph20.9 kmh - -
Humidity 70% 70% 51% 63%
Pressure 30.04 in1017.3 mb 30.05 in1017.6 mb 30.01 in1016.3 mb -
Hour Temp Dew Point Humidity Winds Wind Gusts Pressure Precip Precip Rate Daily Precip Total
06:14 AM 71.1°F21.7°C 60.8°F16.0°C 70% 0.1 mph E0.2 kmh E 1.0 mph1.6 kmh 30.04 in1017.3 mb 0.00 in0.0 mm 0.00 in0.0 mm 0.00 in0.0 mm
05:59 AM 70.3°F21.3°C 60.1°F15.6°C 70% Calm Calm -- 30.04 in1017.3 mb 0.00 in0.0 mm 0.00 in0.0 mm 0.00 in0.0 mm
05:44 AM 70.2°F21.2°C 60.0°F15.6°C 70% 1.1 mph N1.8 kmh N 3.0 mph4.8 kmh 30.05 in1017.6 mb 0.00 in0.0 mm 0.00 in0.0 mm 0.00 in0.0 mm
05:29 AM 70.1°F21.2°C 59.5°F15.3°C 69% 2.5 mph N4.0 kmh N 5.0 mph8.0 kmh 30.04 in1017.3 mb 0.00 in0.0 mm 0.00 in0.0 mm 0.00 in0.0 mm
05:14 AM 69.5°F20.8°C 59.3°F15.2°C 70% 1.9 mph N3.1 kmh N 3.0 mph4.8 kmh 30.04 in1017.3 mb 0.00 in0.0 mm 0.00 in0.0 mm 0.00 in0.0 mm
04:59 AM 70.2°F21.2°C 59.6°F15.3°C 69% 1.3 mph NNW2.1 kmh NNW 3.0 mph4.8 kmh 30.04 in1017.3 mb 0.00 in0.0 mm 0.00 in0.0 mm 0.00 in0.0 mm
04:44 AM 71.6°F22.0°C 59.6°F15.3°C 66% 0.5 mph SW0.8 kmh SW 2.0 mph3.2 kmh 30.03 in1016.9 mb 0.00 in0.0 mm 0.00 in0.0 mm 0.00 in0.0 mm
04:29 AM 71.5°F21.9°C 59.5°F15.3°C 66% 2.7 mph SSE4.3 kmh SSE 5.0 mph8.0 kmh 30.02 in1016.6 mb 0.00 in0.0 mm 0.00 in0.0 mm 0.00 in0.0 mm
04:14 AM 72.1°F22.3°C 60.1°F15.6°C 66% 2.2 mph SSE3.5 kmh SSE 5.0 mph8.0 kmh 30.02 in1016.6 mb 0.00 in0.0 mm 0.00 in0.0 mm 0.00 in0.0 mm
03:59 AM 72.4°F22.4°C 60.4°F15.8°C 66% 2.2 mph S3.5 kmh S 5.0 mph8.0 kmh 30.01 in1016.3 mb 0.00 in0.0 mm 0.00 in0.0 mm 0.00 in0.0 mm
03:44 AM 73.0°F22.8°C 60.5°F15.8°C 65% 4.2 mph SSE6.8 kmh SSE 6.0 mph9.7 kmh 30.01 in1016.3 mb 0.00 in0.0 mm 0.00 in0.0 mm 0.00 in0.0 mm
03:29 AM 73.5°F23.1°C 61.0°F16.1°C 65% 3.9 mph SSE6.3 kmh SSE 6.0 mph9.7 kmh 30.01 in1016.3 mb 0.00 in0.0 mm 0.00 in0.0 mm 0.00 in0.0 mm
03:14 AM 73.6°F23.1°C 60.7°F15.9°C 64% 4.5 mph SE7.2 kmh SE 7.0 mph11.3 kmh 30.01 in1016.3 mb 0.00 in0.0 mm 0.00 in0.0 mm 0.00 in0.0 mm
02:59 AM 73.8°F23.2°C 60.9°F16.1°C 64% 7.2 mph SE11.6 kmh SE 10.0 mph16.1 kmh 30.01 in1016.3 mb 0.00 in0.0 mm 0.00 in0.0 mm 0.00 in0.0 mm
02:44 AM 74.1°F23.4°C 60.7°F15.9°C 63% 6.6 mph SE10.6 kmh SE 10.0 mph16.1 kmh 30.01 in1016.3 mb 0.00 in0.0 mm 0.00 in0.0 mm 0.00 in0.0 mm
02:29 AM 74.8°F23.8°C 60.9°F16.1°C 62% 4.7 mph SSE7.6 kmh SSE 8.0 mph12.9 kmh 30.02 in1016.6 mb 0.00 in0.0 mm 0.00 in0.0 mm 0.00 in0.0 mm
02:14 AM 74.2°F23.4°C 60.8°F16.0°C 63% 6.0 mph SSE9.7 kmh SSE 8.0 mph12.9 kmh 30.02 in1016.6 mb 0.00 in0.0 mm 0.00 in0.0 mm 0.00 in0.0 mm
01:59 AM 74.5°F23.6°C 60.6°F15.9°C 62% 4.5 mph SE7.2 kmh SE 7.0 mph11.3 kmh 30.02 in1016.6 mb 0.00 in0.0 mm 0.00 in0.0 mm 0.00 in0.0 mm
01:44 AM 75.7°F24.3°C 60.8°F16.0°C 60% 2.9 mph SSE4.7 kmh SSE 5.0 mph8.0 kmh 30.02 in1016.6 mb 0.00 in0.0 mm 0.00 in0.0 mm 0.00 in0.0 mm
01:29 AM 76.2°F24.6°C 60.8°F16.0°C 59% 3.9 mph SSE6.3 kmh SSE 6.0 mph9.7 kmh 30.03 in1016.9 mb 0.00 in0.0 mm 0.00 in0.0 mm 0.00 in0.0 mm
01:14 AM 77.0°F25.0°C 60.6°F15.9°C 57% 6.7 mph SE10.8 kmh SE 9.0 mph14.5 kmh 30.02 in1016.6 mb 0.00 in0.0 mm 0.00 in0.0 mm 0.00 in0.0 mm
12:59 AM 78.2°F25.7°C 60.7°F15.9°C 55% 5.7 mph SE9.2 kmh SE 9.0 mph14.5 kmh 30.03 in1016.9 mb 0.00 in0.0 mm 0.00 in0.0 mm 0.00 in0.0 mm
12:44 AM 79.2°F26.2°C 60.6°F15.9°C 53% 7.0 mph SE11.3 kmh SE 10.0 mph16.1 kmh 30.03 in1016.9 mb 0.00 in0.0 mm 0.00 in0.0 mm 0.00 in0.0 mm
12:29 AM 79.7°F26.5°C 60.5°F15.8°C 52% 7.9 mph SSE12.7 kmh SSE 12.0 mph19.3 kmh 30.03 in1016.9 mb 0.00 in0.0 mm 0.00 in0.0 mm 0.00 in0.0 mm
12:14 AM 80.2°F26.8°C 60.4°F15.8°C 51% 9.2 mph SE14.8 kmh SE 13.0 mph20.9 kmh 30.03 in1016.9 mb 0.00 in0.0 mm 0.00 in0.0 mm 0.00 in0.0 mm